createdAt,value
2018-12-16T00:04:52.365Z,95.50
2018-12-16T00:07:55.738Z,95.70
2018-12-16T00:10:59.150Z,96.33
2018-12-16T00:14:02.562Z,96.42
2018-12-16T00:17:05.922Z,96.39
2018-12-16T00:20:09.564Z,96.04
2018-12-16T00:23:12.950Z,95.60
2018-12-16T00:26:16.298Z,96.01
2018-12-16T00:29:19.764Z,96.37
2018-12-16T00:32:23.074Z,96.21
2018-12-16T00:35:26.451Z,95.95
2018-12-16T00:38:29.958Z,95.73
2018-12-16T00:41:33.294Z,95.91
2018-12-16T00:44:36.604Z,95.94
2018-12-16T00:47:39.926Z,95.97
2018-12-16T00:50:43.347Z,95.78
2018-12-16T00:53:46.695Z,95.64
2018-12-16T00:56:49.997Z,96.01
2018-12-16T00:59:53.353Z,95.53
2018-12-16T01:02:56.764Z,94.90
2018-12-16T01:06:00.193Z,94.14
2018-12-16T01:09:05.605Z,93.54
2018-12-16T01:12:09.084Z,92.79
2018-12-16T01:15:12.625Z,92.43
2018-12-16T01:18:16.057Z,92.91
2018-12-16T01:21:19.406Z,92.73
2018-12-16T01:24:22.754Z,92.37
2018-12-16T01:27:26.114Z,91.64
2018-12-16T01:30:29.489Z,90.58
2018-12-16T01:33:32.892Z,89.96
2018-12-16T01:36:36.356Z,90.55
2018-12-16T01:39:39.693Z,90.19
2018-12-16T01:42:43.113Z,89.44
2018-12-16T01:45:46.438Z,88.99
2018-12-16T01:48:49.849Z,88.52
2018-12-16T01:51:53.238Z,88.21
2018-12-16T01:54:56.637Z,87.34
2018-12-16T01:58:00.043Z,87.48
2018-12-16T02:01:03.379Z,88.24
2018-12-16T02:04:06.832Z,88.69
2018-12-16T02:07:10.206Z,88.52
2018-12-16T02:10:13.626Z,88.34
2018-12-16T02:13:17.045Z,88.79
2018-12-16T02:16:20.357Z,89.47
2018-12-16T02:19:23.733Z,89.39
2018-12-16T02:22:27.136Z,89.66
2018-12-16T02:25:30.481Z,89.25
2018-12-16T02:28:33.821Z,88.96
2018-12-16T02:31:37.252Z,88.95
2018-12-16T02:34:40.719Z,88.26
2018-12-16T02:37:44.101Z,87.81
2018-12-16T02:40:47.534Z,86.22
2018-12-16T02:43:50.952Z,85.64
2018-12-16T02:46:54.329Z,85.29
2018-12-16T02:49:57.725Z,84.82
2018-12-16T02:53:04.459Z,85.11
2018-12-16T02:56:07.702Z,85.00
2018-12-16T02:59:11.110Z,85.54
2018-12-16T03:02:14.557Z,85.75
2018-12-16T03:05:17.988Z,85.37
2018-12-16T03:08:21.407Z,85.05
2018-12-16T03:11:24.742Z,85.52
2018-12-16T03:14:28.116Z,85.57
2018-12-16T03:17:31.505Z,85.09
2018-12-16T03:20:34.909Z,85.24
2018-12-16T03:23:38.316Z,84.76
2018-12-16T03:26:41.805Z,84.78
2018-12-16T03:29:45.117Z,84.66
2018-12-16T03:32:48.508Z,84.23
2018-12-16T03:35:52.007Z,84.68
2018-12-16T03:38:55.317Z,83.91
2018-12-16T03:41:58.651Z,83.86
2018-12-16T03:45:02.116Z,83.77
2018-12-16T03:48:05.524Z,84.67
2018-12-16T03:51:08.870Z,84.43
2018-12-16T03:54:12.197Z,84.17
2018-12-16T03:57:15.524Z,85.01
2018-12-16T04:00:18.894Z,84.38
2018-12-16T04:03:22.297Z,84.57
2018-12-16T04:06:25.699Z,84.45
2018-12-16T04:09:29.033Z,84.47
2018-12-16T04:12:32.337Z,83.77
2018-12-16T04:15:35.686Z,83.66
2018-12-16T04:18:39.025Z,83.47
2018-12-16T04:21:42.334Z,84.23
2018-12-16T04:24:45.688Z,84.62
2018-12-16T04:27:49.094Z,84.58
2018-12-16T04:30:52.488Z,84.48
2018-12-16T04:33:55.894Z,85.14
2018-12-16T04:36:59.259Z,85.49
2018-12-16T04:40:02.721Z,85.73
2018-12-16T04:43:06.094Z,86.00
2018-12-16T04:46:09.405Z,86.31
2018-12-16T04:49:12.776Z,86.67
2018-12-16T04:52:16.185Z,86.88
2018-12-16T04:55:19.518Z,86.34
2018-12-16T04:58:22.831Z,85.20
2018-12-16T05:01:26.272Z,85.00
2018-12-16T05:04:29.681Z,84.48
2018-12-16T05:07:32.983Z,85.12
2018-12-16T05:10:36.374Z,85.44
2018-12-16T05:13:39.783Z,85.65
2018-12-16T05:16:43.177Z,85.37
2018-12-16T05:19:46.574Z,85.78
2018-12-16T05:22:49.993Z,85.73
2018-12-16T05:25:53.374Z,85.79
2018-12-16T05:28:56.781Z,86.26
2018-12-16T05:32:00.128Z,87.17
2018-12-16T05:35:04.188Z,86.55
2018-12-16T05:38:07.601Z,86.68
2018-12-16T05:41:10.945Z,86.18
2018-12-16T05:44:14.249Z,87.09
2018-12-16T05:47:17.608Z,86.35
2018-12-16T05:50:20.991Z,87.27
2018-12-16T05:53:24.384Z,88.08
2018-12-16T05:56:27.741Z,88.12
2018-12-16T05:59:31.083Z,88.65
2018-12-16T06:02:34.416Z,88.07
2018-12-16T06:05:37.805Z,87.11
2018-12-16T06:08:41.183Z,87.32
2018-12-16T06:11:44.841Z,86.90
2018-12-16T06:14:48.182Z,86.31
2018-12-16T06:17:51.586Z,86.68
2018-12-16T06:20:54.953Z,86.74
2018-12-16T06:23:58.283Z,86.02
2018-12-16T06:27:01.683Z,86.11
2018-12-16T06:30:06.025Z,85.88
2018-12-16T06:33:09.331Z,85.34
2018-12-16T06:36:13.270Z,84.98
2018-12-16T06:39:16.605Z,85.61
2018-12-16T06:42:19.910Z,85.45
2018-12-16T06:45:23.328Z,85.48
2018-12-16T06:48:26.709Z,85.34
2018-12-16T06:51:30.234Z,85.46
2018-12-16T06:54:36.118Z,85.36
2018-12-16T06:57:39.411Z,84.70
2018-12-16T07:00:42.741Z,85.16
2018-12-16T07:03:46.045Z,84.70
2018-12-16T07:06:49.354Z,84.82
2018-12-16T07:09:52.897Z,85.00
2018-12-16T07:12:56.294Z,84.70
2018-12-16T07:15:59.602Z,84.54
2018-12-16T07:19:03.037Z,84.41
2018-12-16T07:22:06.380Z,83.60
2018-12-16T07:25:09.793Z,84.15
2018-12-16T07:28:13.306Z,84.16
2018-12-16T07:31:16.805Z,83.45
2018-12-16T07:34:20.271Z,83.43
2018-12-16T07:37:23.595Z,84.08
2018-12-16T07:40:27.062Z,83.65
2018-12-16T07:43:30.474Z,83.77
2018-12-16T07:46:33.872Z,83.76
2018-12-16T07:49:37.184Z,83.24
2018-12-16T07:52:40.560Z,83.41
2018-12-16T07:55:43.980Z,82.51
2018-12-16T07:58:47.273Z,82.63
2018-12-16T08:01:50.683Z,82.57
2018-12-16T08:04:54.120Z,82.58
2018-12-16T08:07:57.471Z,82.49
2018-12-16T08:11:00.865Z,82.05
2018-12-16T08:14:04.261Z,81.16
2018-12-16T08:17:07.675Z,81.50
2018-12-16T08:20:11.066Z,80.44
2018-12-16T08:23:14.463Z,81.15
2018-12-16T08:26:17.847Z,81.48
2018-12-16T08:29:21.133Z,81.33
2018-12-16T08:32:24.561Z,80.35
2018-12-16T08:35:28.038Z,81.14
2018-12-16T08:38:31.466Z,80.83
2018-12-16T08:41:34.858Z,80.95
2018-12-16T08:44:38.177Z,81.44
2018-12-16T08:47:41.552Z,82.12
2018-12-16T08:50:44.860Z,82.99
2018-12-16T08:53:48.337Z,84.37
2018-12-16T08:56:51.762Z,85.35
2018-12-16T08:59:55.061Z,86.61
2018-12-16T09:02:58.393Z,87.02
2018-12-16T09:06:01.684Z,88.02
2018-12-16T09:09:07.033Z,88.13
2018-12-16T09:12:10.418Z,89.13
2018-12-16T09:15:13.746Z,89.15
2018-12-16T09:18:17.041Z,90.04
2018-12-16T09:21:20.345Z,90.07
2018-12-16T09:24:23.706Z,90.12
2018-12-16T09:27:27.016Z,89.58
2018-12-16T09:30:30.430Z,89.17
2018-12-16T09:33:33.938Z,89.38
2018-12-16T09:36:37.347Z,89.15
2018-12-16T09:39:40.666Z,88.75
2018-12-16T09:42:44.172Z,89.15
2018-12-16T09:45:49.565Z,88.92
2018-12-16T09:48:52.752Z,88.18
2018-12-16T09:51:56.054Z,87.48
2018-12-16T09:54:59.385Z,87.32
2018-12-16T09:58:02.758Z,87.09
2018-12-16T10:01:06.724Z,86.88
2018-12-16T10:04:10.361Z,88.04
2018-12-16T10:07:13.856Z,89.12
2018-12-16T10:10:17.284Z,88.78
2018-12-16T10:13:20.737Z,88.57
2018-12-16T10:16:24.049Z,89.33
2018-12-16T10:19:27.389Z,90.12
2018-12-16T10:22:30.713Z,90.19
2018-12-16T10:25:34.006Z,90.51
2018-12-16T10:28:37.306Z,90.76
2018-12-16T10:31:40.683Z,91.39
2018-12-16T10:34:44.076Z,91.13
2018-12-16T10:37:47.372Z,91.54
2018-12-16T10:40:50.689Z,90.63
2018-12-16T10:43:53.990Z,89.76
2018-12-16T10:46:57.345Z,89.94
2018-12-16T10:50:00.740Z,88.89
2018-12-16T10:53:04.148Z,89.35
2018-12-16T10:56:07.983Z,89.33
2018-12-16T10:59:11.333Z,87.84
2018-12-16T11:02:15.645Z,87.31
2018-12-16T11:05:19.185Z,86.36
2018-12-16T11:08:22.618Z,86.71
2018-12-16T11:11:25.910Z,86.20
2018-12-16T11:14:29.310Z,85.61
2018-12-16T11:17:32.784Z,85.26
2018-12-16T11:20:36.131Z,85.17
2018-12-16T11:23:39.521Z,84.89
2018-12-16T11:26:42.951Z,85.50
2018-12-16T11:29:46.290Z,85.60
2018-12-16T11:32:49.593Z,84.08
2018-12-16T11:35:52.874Z,83.95
2018-12-16T11:39:01.210Z,84.81
2018-12-16T11:45:21.790Z,84.95
2018-12-16T11:48:25.146Z,84.58
2018-12-16T11:51:28.631Z,84.00
2018-12-16T11:54:31.987Z,82.75
2018-12-16T11:57:35.317Z,82.19
2018-12-16T12:00:38.633Z,82.16
2018-12-16T12:03:42.055Z,82.86
2018-12-16T12:06:45.460Z,83.11
2018-12-16T12:09:48.819Z,84.36
2018-12-16T12:12:52.121Z,84.64
2018-12-16T12:15:55.583Z,85.97
2018-12-16T12:19:00.085Z,87.80
2018-12-16T12:22:04.467Z,87.82
2018-12-16T12:25:08.059Z,88.54
2018-12-16T12:28:11.564Z,88.34
2018-12-16T12:31:14.871Z,88.55
2018-12-16T12:34:18.173Z,88.06
2018-12-16T12:37:21.649Z,88.38
2018-12-16T12:40:25.151Z,88.77
2018-12-16T12:43:28.503Z,88.70
2018-12-16T12:46:31.833Z,89.29
2018-12-16T12:49:35.257Z,88.95
2018-12-16T12:52:38.553Z,89.31
2018-12-16T12:55:41.859Z,89.40
2018-12-16T12:58:45.238Z,90.32
2018-12-16T13:01:48.594Z,90.99
2018-12-16T13:04:51.886Z,91.59
2018-12-16T13:07:55.259Z,91.58
2018-12-16T13:10:59.344Z,91.84
2018-12-16T13:14:02.714Z,91.21
2018-12-16T13:17:06.101Z,91.90
2018-12-16T13:20:09.567Z,91.90
2018-12-16T13:23:13.013Z,92.42
2018-12-16T13:26:16.350Z,92.46
2018-12-16T13:29:19.641Z,91.77
2018-12-16T13:32:22.968Z,92.75
2018-12-16T13:35:26.250Z,93.43
2018-12-16T13:38:29.598Z,93.64
2018-12-16T13:41:32.894Z,94.52
2018-12-16T13:44:36.228Z,94.61
2018-12-16T13:47:39.622Z,94.76
2018-12-16T13:50:42.984Z,94.88
2018-12-16T13:53:47.344Z,95.60
2018-12-16T13:56:53.229Z,95.95
2018-12-16T13:59:56.665Z,96.09
2018-12-16T14:03:00.076Z,96.45
2018-12-16T14:06:03.467Z,96.69
2018-12-16T14:09:07.418Z,96.56
2018-12-16T14:12:10.758Z,97.03
2018-12-16T14:15:14.100Z,97.33
2018-12-16T14:18:17.443Z,98.02
2018-12-16T14:21:20.755Z,98.62
2018-12-16T14:24:24.062Z,99.16
2018-12-16T14:27:27.369Z,99.58
2018-12-16T14:30:30.744Z,100.00
2018-12-16T14:33:34.405Z,100.00
2018-12-16T14:36:37.832Z,100.00
2018-12-16T14:39:41.614Z,100.00
2018-12-16T14:42:44.968Z,100.00
2018-12-16T14:45:48.395Z,100.00
2018-12-16T14:48:51.751Z,100.00
2018-12-16T14:51:55.135Z,100.00
2018-12-16T14:54:58.491Z,100.00
2018-12-16T14:58:01.904Z,100.00
2018-12-16T15:01:05.356Z,100.00
2018-12-16T15:04:08.656Z,100.00
2018-12-16T15:07:12.023Z,100.00
2018-12-16T15:10:15.439Z,100.00
2018-12-16T15:13:18.793Z,100.00
2018-12-16T15:16:22.141Z,100.00
2018-12-16T15:19:25.565Z,100.00
2018-12-16T15:22:28.881Z,100.00
2018-12-16T15:25:32.968Z,100.00
2018-12-16T15:28:36.323Z,100.00
2018-12-16T15:31:39.920Z,100.00
2018-12-16T15:34:43.514Z,100.00
2018-12-16T15:37:47.005Z,100.00
2018-12-16T15:40:50.365Z,100.00
2018-12-16T15:47:10.806Z,100.00
2018-12-16T15:50:14.181Z,100.00
2018-12-16T15:53:17.487Z,100.00
2018-12-16T15:56:21.769Z,100.00
2018-12-16T15:59:25.182Z,100.00
2018-12-16T16:02:28.778Z,100.00
2018-12-16T16:05:32.338Z,100.00
2018-12-16T16:08:35.643Z,100.00
2018-12-16T16:11:38.996Z,100.00
2018-12-16T16:14:42.333Z,100.00
2018-12-16T16:17:45.728Z,100.00
2018-12-16T16:20:49.052Z,100.00
2018-12-16T16:23:52.361Z,100.00
2018-12-16T16:26:55.749Z,100.00
2018-12-16T16:29:59.072Z,100.00
2018-12-16T16:33:02.510Z,100.00
2018-12-16T16:36:05.832Z,100.00
2018-12-16T16:39:09.712Z,100.00
2018-12-16T16:42:13.172Z,100.00
2018-12-16T16:45:16.541Z,100.00
2018-12-16T16:48:19.893Z,100.00
2018-12-16T16:51:23.249Z,100.00
2018-12-16T16:54:26.712Z,100.00
2018-12-16T17:01:15.302Z,100.00
2018-12-16T17:11:27.952Z,100.00
2018-12-16T17:14:31.266Z,100.00
2018-12-16T17:17:34.585Z,100.00
2018-12-16T17:20:37.924Z,100.00
2018-12-16T17:23:41.394Z,100.00
2018-12-16T17:26:44.703Z,100.00
2018-12-16T17:29:48.074Z,100.00
2018-12-16T17:32:51.385Z,100.00
2018-12-16T17:35:54.716Z,100.00
2018-12-16T17:38:58.105Z,100.00
2018-12-16T17:42:01.421Z,100.00
2018-12-16T17:45:05.653Z,100.00
2018-12-16T17:48:08.990Z,100.00
2018-12-16T17:51:12.377Z,100.00
2018-12-16T17:54:15.684Z,100.00
2018-12-16T17:57:19.106Z,100.00
2018-12-16T18:00:22.562Z,100.00
2018-12-16T18:03:25.972Z,100.00
2018-12-16T18:06:29.338Z,100.00
2018-12-16T18:09:32.713Z,100.00
2018-12-16T18:12:36.046Z,100.00
2018-12-16T18:15:39.493Z,100.00
2018-12-16T18:18:42.822Z,100.00
2018-12-16T18:21:46.233Z,100.00
2018-12-16T18:24:49.644Z,100.00
2018-12-16T18:27:53.078Z,100.00
2018-12-16T18:30:56.474Z,100.00
2018-12-16T18:34:05.866Z,100.00
2018-12-16T18:37:09.239Z,100.00
2018-12-16T18:40:12.590Z,100.00
2018-12-16T18:43:15.948Z,100.00
2018-12-16T18:46:19.409Z,100.00
2018-12-16T18:49:22.719Z,100.00
2018-12-16T18:52:26.097Z,100.00
2018-12-16T18:55:29.414Z,100.00
2018-12-16T18:58:32.728Z,100.00
2018-12-16T19:01:36.182Z,100.00
2018-12-16T19:04:39.512Z,100.00
2018-12-16T19:07:42.817Z,100.00
2018-12-16T19:10:46.113Z,100.00
2018-12-16T19:13:49.452Z,100.00
2018-12-16T19:16:52.834Z,100.00
2018-12-16T19:19:56.137Z,100.00
2018-12-16T19:22:59.497Z,100.00
2018-12-16T19:26:02.828Z,100.00
2018-12-16T19:29:06.138Z,100.00
2018-12-16T19:32:09.561Z,100.00
2018-12-16T19:35:12.901Z,100.00
2018-12-16T19:38:16.322Z,100.00
2018-12-16T19:41:19.643Z,100.00
2018-12-16T19:44:23.089Z,100.00
2018-12-16T19:47:26.408Z,100.00
2018-12-16T19:50:29.835Z,100.00
2018-12-16T19:53:33.197Z,100.00
2018-12-16T19:56:36.579Z,100.00
2018-12-16T19:59:39.885Z,100.00
2018-12-16T20:02:43.213Z,100.00
2018-12-16T20:05:51.924Z,100.00
2018-12-16T20:08:55.306Z,100.00
2018-12-16T20:11:58.654Z,100.00
2018-12-16T20:15:02.028Z,100.00
2018-12-16T20:18:05.383Z,100.00
2018-12-16T20:21:08.714Z,100.00
2018-12-16T20:24:12.037Z,100.00
2018-12-16T20:27:15.337Z,100.00
2018-12-16T20:30:18.697Z,100.00
2018-12-16T20:33:22.122Z,100.00
2018-12-16T20:36:25.424Z,100.00
2018-12-16T20:39:28.774Z,100.00
2018-12-16T20:42:32.828Z,100.00
2018-12-16T20:45:36.210Z,100.00
2018-12-16T20:48:39.526Z,100.00
2018-12-16T20:51:42.981Z,100.00
2018-12-16T20:54:46.313Z,100.00
2018-12-16T20:57:49.696Z,100.00
2018-12-16T21:00:56.801Z,100.00
2018-12-16T21:04:00.805Z,100.00
2018-12-16T21:07:04.185Z,100.00
2018-12-16T21:10:07.956Z,100.00
2018-12-16T21:13:16.737Z,100.00
2018-12-16T21:19:59.951Z,100.00
2018-12-16T21:23:04.634Z,100.00
2018-12-16T21:26:08.437Z,100.00
2018-12-16T21:29:13.278Z,100.00
2018-12-16T21:32:16.590Z,100.00
2018-12-16T21:35:26.319Z,100.00
2018-12-16T21:38:30.022Z,100.00
2018-12-16T21:41:33.532Z,100.00
2018-12-16T21:44:36.863Z,100.00
2018-12-16T21:47:40.440Z,100.00
2018-12-16T21:50:43.885Z,100.00
2018-12-16T21:53:47.295Z,100.00
2018-12-16T21:56:50.802Z,100.00
2018-12-16T21:59:54.473Z,100.00
2018-12-16T22:02:57.836Z,100.00
2018-12-16T22:06:01.208Z,100.00
2018-12-16T22:09:06.894Z,100.00
2018-12-16T22:12:10.281Z,100.00
2018-12-16T22:18:24.096Z,100.00
2018-12-16T22:21:27.414Z,100.00
2018-12-16T22:24:30.769Z,100.00
2018-12-16T22:27:40.046Z,100.00
2018-12-16T22:30:39.429Z,100.00
2018-12-16T22:33:42.805Z,100.00
2018-12-16T22:36:46.202Z,100.00
2018-12-16T22:39:49.591Z,100.00
2018-12-16T22:42:52.912Z,100.00
2018-12-16T22:45:56.311Z,100.00
2018-12-16T22:48:59.664Z,100.00
2018-12-16T22:52:03.054Z,100.00
2018-12-16T22:55:06.627Z,100.00
2018-12-16T22:58:09.969Z,100.00
2018-12-16T23:01:16.219Z,100.00
2018-12-16T23:04:19.673Z,100.00
2018-12-16T23:07:23.016Z,100.00
2018-12-16T23:10:26.335Z,100.00
2018-12-16T23:13:29.649Z,100.00
2018-12-16T23:16:33.042Z,100.00
2018-12-16T23:19:36.361Z,100.00
2018-12-16T23:22:39.780Z,100.00
2018-12-16T23:25:43.152Z,100.00
2018-12-16T23:28:46.468Z,100.00
2018-12-16T23:31:49.823Z,100.00
2018-12-16T23:34:53.173Z,100.00
2018-12-16T23:37:56.499Z,100.00
2018-12-16T23:40:59.881Z,100.00
2018-12-16T23:44:03.225Z,100.00
2018-12-16T23:47:06.577Z,100.00
2018-12-16T23:50:10.104Z,100.00
2018-12-16T23:53:13.486Z,100.00
2018-12-16T23:56:19.040Z,100.00
2018-12-16T23:59:22.883Z,100.00
